createdAt,value
2018-12-04T00:03:57.714Z,5.97
2018-12-04T00:08:18.271Z,6.00
2018-12-04T00:12:35.711Z,6.10
2018-12-04T00:17:01.538Z,4.33
2018-12-04T00:21:13.794Z,4.23
2018-12-04T00:25:30.712Z,5.07
2018-12-04T00:30:06.037Z,8.83
2018-12-04T00:34:23.903Z,7.93
2018-12-04T00:39:01.873Z,5.13
2018-12-04T00:43:27.773Z,5.00
2018-12-04T00:47:53.043Z,3.67
2018-12-04T00:52:27.110Z,4.67
2018-12-04T00:57:05.845Z,5.13
2018-12-04T01:01:19.498Z,4.80
2018-12-04T01:05:31.274Z,3.13
2018-12-04T01:09:46.095Z,2.20
2018-12-04T01:14:09.399Z,3.23
2018-12-04T01:18:21.258Z,4.20
2018-12-04T01:22:51.306Z,3.57
2018-12-04T01:27:02.930Z,4.07
2018-12-04T01:31:27.748Z,3.73
2018-12-04T01:35:56.759Z,4.33
2018-12-04T01:40:11.229Z,3.40
2018-12-04T01:44:21.984Z,2.67
2018-12-04T01:48:34.943Z,3.87
2018-12-04T01:52:50.850Z,6.00
2018-12-04T01:57:02.510Z,4.73
2018-12-04T02:01:24.918Z,3.67
2018-12-04T02:06:04.825Z,3.30
2018-12-04T02:09:51.333Z,3.20
2018-12-04T02:14:18.731Z,3.17
2018-12-04T02:18:41.602Z,4.20
2018-12-04T02:23:07.011Z,4.73
2018-12-04T02:27:19.978Z,3.40
2018-12-04T02:31:37.237Z,5.00
2018-12-04T02:36:00.508Z,3.90
2018-12-04T02:40:14.004Z,3.33
2018-12-04T02:44:26.709Z,3.60
2018-12-04T02:48:40.349Z,5.27
2018-12-04T02:52:54.436Z,2.93
2018-12-04T02:57:17.007Z,4.13
2018-12-04T03:01:39.588Z,3.23
2018-12-04T03:05:59.336Z,3.87
2018-12-04T03:10:43.064Z,2.17
2018-12-04T03:15:29.087Z,3.27
2018-12-04T03:20:27.628Z,3.00
2018-12-04T03:24:38.658Z,4.53
2018-12-04T03:28:54.962Z,3.80
2018-12-04T03:33:20.544Z,3.47
2018-12-04T03:37:28.329Z,7.30
2018-12-04T03:41:36.107Z,2.93
2018-12-04T03:45:44.561Z,2.90
2018-12-04T03:49:52.519Z,2.07
2018-12-04T03:54:02.287Z,3.33
2018-12-04T03:58:10.113Z,2.27
2018-12-04T04:02:17.784Z,2.10
2018-12-04T04:06:25.385Z,3.20
2018-12-04T04:10:35.284Z,2.47
2018-12-04T04:15:25.084Z,1.93
2018-12-04T04:19:31.053Z,2.00
2018-12-04T04:23:36.850Z,1.98
2018-12-04T04:27:42.767Z,1.67
2018-12-04T04:31:48.857Z,1.75
2018-12-04T04:35:58.177Z,1.80
2018-12-04T04:40:05.629Z,1.98
2018-12-04T04:44:11.564Z,2.77
2018-12-04T04:48:17.512Z,1.42
2018-12-04T04:52:23.786Z,1.95
2018-12-04T04:56:29.912Z,1.40
2018-12-04T05:00:35.871Z,1.60
2018-12-04T05:04:42.144Z,1.90
2018-12-04T05:08:48.007Z,2.08
2018-12-04T05:12:54.918Z,1.85
2018-12-04T05:17:01.178Z,1.60
2018-12-04T05:21:07.249Z,2.33
2018-12-04T05:25:13.280Z,1.80
2018-12-04T05:29:19.175Z,5.30
2018-12-04T05:33:25.245Z,2.30
2018-12-04T05:37:31.447Z,1.77
2018-12-04T05:41:37.804Z,1.67
2018-12-04T05:45:43.620Z,2.30
2018-12-04T05:49:49.627Z,2.83
2018-12-04T05:53:55.372Z,3.30
2018-12-04T05:58:01.316Z,3.05
2018-12-04T06:02:07.356Z,2.55
2018-12-04T06:06:13.532Z,2.30
2018-12-04T06:10:19.504Z,3.83
2018-12-04T06:14:26.332Z,2.83
2018-12-04T06:18:32.363Z,3.58
2018-12-04T06:22:38.693Z,3.67
2018-12-04T06:26:44.629Z,22.58
2018-12-04T06:30:51.986Z,4.22
2018-12-04T06:34:59.247Z,3.60
2018-12-04T06:39:07.669Z,6.87
2018-12-04T06:43:14.374Z,5.65
2018-12-04T06:47:20.563Z,5.67
2018-12-04T06:51:26.517Z,6.30
2018-12-04T06:55:32.522Z,3.87
2018-12-04T06:59:38.504Z,4.78
2018-12-04T07:03:44.637Z,3.90
2018-12-04T07:07:53.276Z,6.45
2018-12-04T07:12:02.453Z,5.80
2018-12-04T07:16:08.629Z,6.72
2018-12-04T07:20:15.126Z,5.97
2018-12-04T07:24:22.265Z,7.60
2018-12-04T07:28:28.452Z,5.47
2018-12-04T07:32:38.717Z,6.55
2018-12-04T07:36:42.329Z,8.00
2018-12-04T07:40:48.629Z,8.18
2018-12-04T07:44:54.301Z,10.43
2018-12-04T07:49:01.343Z,7.70
2018-12-04T07:53:11.573Z,8.03
2018-12-04T08:01:40.790Z,10.20
2018-12-04T08:05:48.589Z,7.50
2018-12-04T08:09:54.955Z,11.53
2018-12-04T08:14:02.443Z,8.50
2018-12-04T08:18:07.973Z,8.10
2018-12-04T08:22:13.575Z,9.25
2018-12-04T08:26:19.388Z,11.08
2018-12-04T08:30:24.964Z,7.28
2018-12-04T08:34:30.660Z,6.80
2018-12-04T08:38:36.396Z,6.83
2018-12-04T08:42:42.078Z,7.87
2018-12-04T08:46:47.914Z,7.15
2018-12-04T08:50:53.862Z,10.32
2018-12-04T08:54:59.519Z,6.80
2018-12-04T08:59:05.462Z,5.80
2018-12-04T09:03:12.443Z,5.92
2018-12-04T09:07:21.567Z,6.60
2018-12-04T09:11:30.642Z,5.77
2018-12-04T09:15:38.100Z,5.42
2018-12-04T09:19:46.349Z,9.33
2018-12-04T09:23:53.721Z,7.27
2018-12-04T09:28:00.910Z,6.80
2018-12-04T09:32:07.168Z,7.97
2018-12-04T09:36:13.857Z,8.48
2018-12-04T09:40:19.451Z,5.78
2018-12-04T09:44:25.383Z,7.58
2018-12-04T09:48:31.464Z,6.15
2018-12-04T09:52:39.472Z,6.28
2018-12-04T09:56:45.317Z,6.33
2018-12-04T10:00:51.552Z,6.53
2018-12-04T10:04:58.375Z,6.15
2018-12-04T10:09:06.506Z,7.30
2018-12-04T10:13:13.108Z,5.47
2018-12-04T10:17:21.668Z,7.47
2018-12-04T10:21:29.299Z,9.48
2018-12-04T10:25:37.792Z,7.65
2018-12-04T10:29:45.321Z,4.53
2018-12-04T10:33:51.310Z,7.00
2018-12-04T10:38:00.459Z,8.43
2018-12-04T10:42:06.704Z,8.80
2018-12-04T10:46:12.539Z,8.65
2018-12-04T10:50:21.077Z,6.30
2018-12-04T10:54:27.036Z,8.15
2018-12-04T10:58:33.300Z,6.78
2018-12-04T11:02:47.947Z,5.35
2018-12-04T11:06:54.570Z,4.45
2018-12-04T11:11:01.060Z,6.85
2018-12-04T11:15:07.650Z,8.75
2018-12-04T11:19:14.667Z,6.55
2018-12-04T11:23:21.668Z,7.03
2018-12-04T11:27:33.908Z,4.20
2018-12-04T11:31:43.862Z,5.20
2018-12-04T11:35:56.318Z,5.25
2018-12-04T11:40:05.057Z,5.15
2018-12-04T11:44:11.996Z,6.78
2018-12-04T11:48:20.419Z,6.25
2018-12-04T11:52:29.633Z,5.85
2018-12-04T11:56:36.207Z,8.03
2018-12-04T12:00:46.466Z,4.95
2018-12-04T12:04:53.993Z,4.22
2018-12-04T12:09:04.176Z,5.10
2018-12-04T12:13:14.419Z,5.45
2018-12-04T12:17:21.672Z,5.53
2018-12-04T12:21:28.954Z,5.90
2018-12-04T12:25:35.121Z,7.78
2018-12-04T12:29:40.859Z,4.53
2018-12-04T12:33:46.647Z,4.42
2018-12-04T12:37:59.621Z,5.22
2018-12-04T12:42:08.156Z,5.50
2018-12-04T12:46:17.664Z,6.35
2018-12-04T12:50:23.843Z,7.53
2018-12-04T12:54:33.184Z,8.23
2018-12-04T12:58:50.742Z,8.28
2018-12-04T13:03:01.054Z,6.90
2018-12-04T13:07:10.538Z,10.15
2018-12-04T13:11:17.584Z,6.05
2018-12-04T13:15:26.369Z,8.87
2018-12-04T13:24:13.939Z,8.33
2018-12-04T13:28:21.858Z,6.45
2018-12-04T13:32:42.200Z,7.83
2018-12-04T13:41:40.006Z,6.90
2018-12-04T13:45:47.177Z,6.05
2018-12-04T13:50:00.124Z,6.53
2018-12-04T13:54:08.801Z,7.47
2018-12-04T13:58:15.552Z,7.78
2018-12-04T14:02:25.104Z,6.70
2018-12-04T14:06:31.349Z,4.20
2018-12-04T14:10:43.445Z,7.35
2018-12-04T14:14:52.423Z,7.42
2018-12-04T14:19:00.430Z,6.95
2018-12-04T14:23:06.993Z,4.30
2018-12-04T14:27:13.694Z,8.73
2018-12-04T14:31:25.563Z,8.98
2018-12-04T14:35:34.811Z,8.10
2018-12-04T14:39:57.881Z,6.17
2018-12-04T14:44:05.086Z,7.03
2018-12-04T14:48:14.549Z,7.53
2018-12-04T14:52:26.362Z,11.70
2018-12-04T14:56:33.266Z,8.25
2018-12-04T15:00:41.164Z,8.40
2018-12-04T15:04:48.280Z,7.62
2018-12-04T15:08:56.310Z,8.75
2018-12-04T15:13:02.961Z,9.05
2018-12-04T15:17:09.417Z,5.87
2018-12-04T15:21:15.363Z,8.08
2018-12-04T15:25:21.691Z,7.12
2018-12-04T15:29:27.416Z,6.08
2018-12-04T15:33:34.926Z,7.25
2018-12-04T15:37:42.175Z,7.78
2018-12-04T15:41:48.961Z,8.65
2018-12-04T15:45:57.027Z,9.65
2018-12-04T15:50:06.594Z,14.73
2018-12-04T15:54:12.788Z,10.75
2018-12-04T15:58:20.015Z,8.05
2018-12-04T16:02:26.692Z,11.25
2018-12-04T16:06:32.419Z,12.85
2018-12-04T16:10:39.777Z,8.60
2018-12-04T16:14:45.612Z,11.55
2018-12-04T16:18:51.576Z,11.35
2018-12-04T16:22:57.413Z,13.13
2018-12-04T16:27:03.381Z,12.13
2018-12-04T16:31:10.650Z,12.78
2018-12-04T16:35:16.329Z,12.63
2018-12-04T16:39:23.051Z,10.13
2018-12-04T16:43:29.245Z,12.68
2018-12-04T16:47:35.083Z,12.00
2018-12-04T16:51:40.768Z,11.03
2018-12-04T16:55:47.478Z,11.48
2018-12-04T16:59:56.208Z,9.88
2018-12-04T17:04:02.425Z,15.53
2018-12-04T17:08:08.189Z,17.00
2018-12-04T17:12:13.979Z,10.93
2018-12-04T17:16:19.655Z,9.20
2018-12-04T17:20:25.366Z,8.43
2018-12-04T17:24:31.201Z,13.48
2018-12-04T17:28:36.864Z,11.25
2018-12-04T17:32:42.647Z,9.80
2018-12-04T17:36:48.181Z,9.63
2018-12-04T17:40:54.331Z,9.03
2018-12-04T17:45:00.102Z,11.57
2018-12-04T17:49:05.837Z,9.40
2018-12-04T17:53:11.997Z,9.93
2018-12-04T17:57:17.814Z,9.53
2018-12-04T18:01:25.599Z,12.10
2018-12-04T18:05:33.276Z,12.40
2018-12-04T18:09:39.731Z,12.40
2018-12-04T18:13:47.410Z,17.45
2018-12-04T18:17:53.157Z,11.48
2018-12-04T18:21:58.937Z,12.82
2018-12-04T18:26:04.758Z,14.50
2018-12-04T18:30:10.511Z,16.73
2018-12-04T18:34:16.278Z,13.00
2018-12-04T18:38:25.246Z,17.55
2018-12-04T18:42:30.823Z,16.32
2018-12-04T18:46:36.476Z,17.42
2018-12-04T18:50:44.494Z,16.32
2018-12-04T18:54:53.878Z,12.80
2018-12-04T18:58:59.747Z,15.65
2018-12-04T19:03:07.554Z,14.47
2018-12-04T19:07:14.504Z,17.48
2018-12-04T19:11:21.551Z,14.75
2018-12-04T19:15:28.613Z,16.90
2018-12-04T19:19:35.858Z,17.55
2018-12-04T19:23:42.787Z,23.60
2018-12-04T19:27:49.718Z,18.32
2018-12-04T19:32:02.688Z,18.85
2018-12-04T19:36:09.302Z,20.23
2018-12-04T19:40:17.951Z,21.37
2018-12-04T19:44:24.163Z,18.95
2018-12-04T19:48:30.023Z,18.73
2018-12-04T19:52:38.294Z,16.40
2018-12-04T19:56:44.187Z,15.28
2018-12-04T20:00:50.171Z,13.88
2018-12-04T20:04:56.784Z,15.05
2018-12-04T20:09:05.841Z,18.98
2018-12-04T20:13:16.754Z,14.85
2018-12-04T20:17:23.069Z,15.20
2018-12-04T20:21:34.449Z,24.95
2018-12-04T20:25:40.801Z,17.82
2018-12-04T20:29:46.935Z,19.30
2018-12-04T20:33:57.212Z,22.50
2018-12-04T20:38:03.734Z,20.45
2018-12-04T20:42:12.163Z,21.20
2018-12-04T20:46:19.146Z,19.25
2018-12-04T20:50:27.808Z,20.35
2018-12-04T20:54:58.555Z,18.45
2018-12-04T20:59:07.254Z,18.23
2018-12-04T21:03:13.447Z,17.15
2018-12-04T21:07:20.571Z,22.77
2018-12-04T21:11:31.623Z,16.32
2018-12-04T21:15:41.392Z,16.50
2018-12-04T21:19:50.851Z,20.40
2018-12-04T21:23:58.908Z,17.48
2018-12-04T21:28:14.778Z,20.62
2018-12-04T21:32:27.885Z,20.75
2018-12-04T21:36:45.430Z,15.72
2018-12-04T21:41:03.519Z,23.35
2018-12-04T21:45:19.177Z,29.23
2018-12-04T21:49:27.019Z,30.37
2018-12-04T21:53:36.245Z,25.95
2018-12-04T21:57:42.167Z,30.90
2018-12-04T22:01:50.089Z,28.00
2018-12-04T22:05:57.213Z,28.02
2018-12-04T22:10:04.236Z,29.82
2018-12-04T22:14:10.389Z,21.57
2018-12-04T22:18:16.347Z,23.90
2018-12-04T22:22:22.419Z,21.93
2018-12-04T22:26:29.486Z,21.37
2018-12-04T22:30:35.714Z,22.30
2018-12-04T22:34:46.633Z,21.07
2018-12-04T22:38:52.586Z,25.82
2018-12-04T22:43:03.661Z,29.12
2018-12-04T22:47:09.813Z,21.45
2018-12-04T22:51:21.975Z,23.60
2018-12-04T22:55:31.163Z,28.60
2018-12-04T22:59:39.367Z,28.30
2018-12-04T23:03:53.919Z,21.75
2018-12-04T23:08:02.154Z,23.57
2018-12-04T23:12:15.543Z,22.73
2018-12-04T23:16:26.496Z,24.37
2018-12-04T23:20:32.573Z,25.43
2018-12-04T23:24:39.768Z,23.30
2018-12-04T23:28:45.829Z,23.95
2018-12-04T23:32:54.294Z,22.25
2018-12-04T23:37:01.368Z,22.00
2018-12-04T23:41:07.512Z,23.20
2018-12-04T23:45:14.796Z,21.27
2018-12-04T23:49:20.774Z,22.22
2018-12-04T23:53:26.738Z,22.00
2018-12-04T23:57:32.743Z,24.72
